CheckWX is a tool to help pilots better visualize weather data.  It is not intended as a substitute for an official pre-flight weather briefing.

19:02:27 UTC

KJBR METAR
Jonesboro Municipal Airport
Jonesboro, Arkansas, USA
Current

1 hour ago

KJBR 021753Z AUTO 05004KT 10SM BKN035 31/25 A2996 RMK AO2 SLP143 T03060250 10311 20222 56004 TSNO
Observed
Jul-2 @ 17:53 UTC
Wind
  • 050° at 4 KTS
Visibility
10 SM
Flight Rules
VFR
Cloud Levels
  • Broken at 3,500' AGL
Temperature
31°C / 88°F
Dewpoint
25°C / 77°F
Humidity
70%
Altimeter
29.96" Hg
Pressure
1014.52 hPa
Previous

2 hours ago

KJBR 021653Z AUTO 10SM FEW020 29/24 A2997 RMK AO2 SLP144 T02940239 TSNO $
Observed
Jul-2 @ 16:53 UTC
Visibility
10 SM
Flight Rules
VFR
Cloud Levels
  • Few at 2,000' AGL
Temperature
29°C / 84°F
Dewpoint
24°C / 75°F
Humidity
74%
Altimeter
29.97" Hg
Pressure
1014.92 hPa
Previous

3 hours ago

KJBR 021553Z AUTO 10SM CLR 28/23 A2997 RMK AO2 SLP145 T02830233 TSNO $
Observed
Jul-2 @ 15:53 UTC
Visibility
10 SM
Flight Rules
VFR
Cloud Levels
  • Clear skies
Temperature
28°C / 82°F
Dewpoint
23°C / 73°F
Humidity
74%
Altimeter
29.97" Hg
Pressure
1014.92 hPa